Redwood Falls, MN

2:00 AM CST on February 01, 2015 (GMT -0600)
Redwood Falls Municipal | Change Station
CLOSE
Current Station
Airport
Location: Redwood Falls,
Elevation: 1024 ft
Nearby Weather Stations

Elev 1024 ft 44.55 °N, 95.08 °W | Updated 7 minutes ago

Light Snow
Light Snow
20 °F
Feels Like 6 °F
N
16
Wind Variable Wind from NE
Gusts 26 mph

Today
High -- | Low -- °F
--% Chance of Precip.
Yesterday
High -- | Low -- °F
Precip. -- in
7:39 AM 5:29 PM
Waxing Gibbous, 94% visible
Pressure 30.21 in
Visibility 4.0 miles
Clouds Overcast 3200 ft
Windchill 6 °F
Dew Point 12 °F
Humidity 71%
Rainfall 0.00 in
Snow Depth Not available.
UV 0 out of 12
Pollen .10 out of 12
Air Quality Not available.
Flu Activity Not available.
METAR KRWF 010753Z AUTO 04014G23KT 4SM -SN OVC032 M07/M11 A3016 RMK AO2 SNB36 SLP229 P0000 T10671111

More Conditions Fewer Conditions

Pressure 30.21 in
Visibility 4.0 miles
Clouds Overcast 3200 ft
Windchill 6 °F
Dew Point 12 °F
Humidity 71%
Rainfall 0.00 in
Snow Depth Not available.
UV 0 out of 12
Pollen .10 out of 12
Air Quality Not available.
Flu Activity Not available.
METAR KRWF 010753Z AUTO 04014G23KT 4SM -SN OVC032 M07/M11 A3016 RMK AO2 SNB36 SLP229 P0000 T10671111

More Conditions Fewer Conditions

10-Day Weather Forecast

Almanac

Astronomy

Feb. 01, 2015 Rise Set
Actual Time
Civil Twilight
Nautical Twilight
Astronomical Twilight
Moon
Length of Visible Light
Length of Day
Tomorrow will be .
, % of the Moon is Illuminated

Today's Extremes

State Highs State Lows

Community

WunderPhotos

Upload Photos

1,792,327 photos uploaded!

WunderBlogs® & News

Nearby

Air Quality

  Air Quality AQ Index Pollutant
Not available.

Snow Depth

Station Depth Elevation

Earthquake Activity

City Distance Mag. Time & Date
Minimum magnitude displayed is 2.5.

Coastal Water Temperatures

Place Temperature

Nearby Weather Stations